Time;durP1;ratioP1;P1;durP2;ratioP2;P2;SDS_P1;SDS_P2;PMS_P1;PMS_P2;Temp;Humidity;BMP_temperature;BMP_pressure;BME280_temperature;BME280_humidity;BME280_pressure;Samples;Min_cycle;Max_cycle;Signal;HPM_P1;HPM_P2
2021/12/04 00:00:13;;;;;;;0.40;0.30;;;;;;;;;;4183093;28;20451;-40
2021/12/04 00:02:17;;;;;;;0.40;0.30;;;;;;;;;;4182761;28;20061;-42
2021/12/04 00:04:25;;;;;;;0.50;0.30;;;;;;;;;;4182937;28;20057;-40
2021/12/04 00:06:27;;;;;;;0.45;0.30;;;;;;;;;;4182572;28;20052;-41
2021/12/04 00:08:33;;;;;;;0.70;0.40;;;;;;;;;;4182180;28;20061;-38
2021/12/04 00:10:34;;;;;;;0.40;0.20;;;;;;;;;;4165028;28;20068;-40
2021/12/04 00:12:35;;;;;;;0.40;0.40;;;;;;;;;;4182488;28;20493;-40
2021/12/04 00:14:37;;;;;;;0.45;0.40;;;;;;;;;;4182451;28;20459;-41
2021/12/04 00:16:38;;;;;;;0.80;0.40;;;;;;;;;;4182578;28;20053;-41
2021/12/04 00:18:39;;;;;;;1.00;0.43;;;;;;;;;;4182593;28;20061;-41
2021/12/04 00:20:41;;;;;;;0.70;0.30;;;;;;;;;;4182447;28;20057;-43
2021/12/04 00:22:43;;;;;;;0.82;0.30;;;;;;;;;;4181930;28;20057;-42
2021/12/04 00:24:45;;;;;;;0.30;0.30;;;;;;;;;;4182331;28;20106;-42
2021/12/04 00:26:47;;;;;;;0.30;0.20;;;;;;;;;;4182502;28;20055;-40
2021/12/04 00:28:48;;;;;;;0.50;0.30;;;;;;;;;;4181113;28;20400;-40
2021/12/04 00:30:50;;;;;;;0.30;0.30;;;;;;;;;;4182519;28;20057;-42
2021/12/04 00:33:01;;;;;;;1.02;0.30;;;;;;;;;;4182179;28;20400;-40
2021/12/04 00:50:48;;;;;;;0.20;0.20;;;;;;;;;;4164334;28;20490;-41
2021/12/04 00:52:49;;;;;;;0.57;0.50;;;;;;;;;;4181811;28;20087;-38
2021/12/04 00:54:50;;;;;;;0.40;0.40;;;;;;;;;;4181984;28;20125;-42
2021/12/04 00:56:52;;;;;;;0.55;0.32;;;;;;;;;;4182172;28;20053;-40
2021/12/04 00:58:53;;;;;;;0.60;0.30;;;;;;;;;;4181753;28;20053;-40
2021/12/04 01:00:54;;;;;;;0.30;0.30;;;;;;;;;;4182005;28;20057;-41
2021/12/04 01:02:55;;;;;;;0.30;0.22;;;;;;;;;;4181544;28;20378;-42
2021/12/04 01:04:56;;;;;;;0.73;0.50;;;;;;;;;;4164258;28;20084;-42
2021/12/04 01:06:58;;;;;;;0.20;0.20;;;;;;;;;;4181931;28;20053;-40
2021/12/04 01:09:00;;;;;;;0.60;0.47;;;;;;;;;;4181514;28;20056;-38
2021/12/04 01:11:02;;;;;;;0.38;0.38;;;;;;;;;;4181733;28;20057;-39
2021/12/04 01:13:10;;;;;;;1.23;0.30;;;;;;;;;;4181495;28;20053;-42
2021/12/04 01:15:11;;;;;;;0.60;0.40;;;;;;;;;;4164257;28;20184;-41
2021/12/04 01:17:12;;;;;;;0.40;0.30;;;;;;;;;;4181854;28;20057;-40
2021/12/04 01:19:14;;;;;;;0.30;0.30;;;;;;;;;;4181436;28;20528;-38
2021/12/04 01:21:16;;;;;;;0.30;0.30;;;;;;;;;;4181524;28;20119;-40
2021/12/04 01:23:19;;;;;;;0.40;0.40;;;;;;;;;;4181094;28;20053;-42
2021/12/04 01:25:20;;;;;;;0.30;0.30;;;;;;;;;;4181391;28;20057;-42
2021/12/04 01:27:22;;;;;;;0.30;0.30;;;;;;;;;;4181639;28;20067;-41
2021/12/04 01:29:24;;;;;;;0.70;0.45;;;;;;;;;;4181353;28;20447;-44
2021/12/04 01:31:26;;;;;;;0.47;0.30;;;;;;;;;;4181376;28;20064;-42
2021/12/04 01:33:28;;;;;;;0.32;0.30;;;;;;;;;;4181423;28;20104;-41
2021/12/04 01:35:29;;;;;;;0.40;0.32;;;;;;;;;;4181277;28;20500;-38
2021/12/04 01:37:30;;;;;;;0.50;0.40;;;;;;;;;;4181342;28;20103;-40
2021/12/04 01:39:31;;;;;;;0.50;0.20;;;;;;;;;;4180711;28;20500;-42
2021/12/04 01:41:33;;;;;;;0.40;0.40;;;;;;;;;;4181496;28;20061;-41
2021/12/04 01:43:34;;;;;;;0.30;0.30;;;;;;;;;;4181044;28;20056;-40
2021/12/04 01:45:36;;;;;;;0.40;0.40;;;;;;;;;;4181074;28;20052;-42
2021/12/04 01:47:37;;;;;;;0.60;0.40;;;;;;;;;;4163178;28;20057;-39
2021/12/04 01:49:39;;;;;;;0.70;0.40;;;;;;;;;;4181291;28;20111;-43
2021/12/04 01:51:39;;;;;;;0.60;0.40;;;;;;;;;;4181083;28;20390;-42
2021/12/04 01:53:41;;;;;;;0.68;0.38;;;;;;;;;;4180798;28;20057;-43
2021/12/04 01:55:42;;;;;;;0.35;0.30;;;;;;;;;;4181031;28;20408;-42
2021/12/04 01:57:43;;;;;;;0.40;0.38;;;;;;;;;;4180984;28;20052;-40
2021/12/04 01:59:44;;;;;;;0.70;0.40;;;;;;;;;;4163208;28;20061;-41
2021/12/04 02:01:45;;;;;;;0.40;0.30;;;;;;;;;;4180811;28;20049;-40
2021/12/04 02:03:46;;;;;;;0.57;0.40;;;;;;;;;;4181035;28;20099;-39
2021/12/04 02:05:48;;;;;;;0.40;0.40;;;;;;;;;;4180835;28;20382;-42
2021/12/04 02:07:49;;;;;;;0.28;0.28;;;;;;;;;;4180284;28;20405;-41
2021/12/04 02:09:50;;;;;;;0.47;0.40;;;;;;;;;;4181201;28;20060;-42
2021/12/04 02:11:51;;;;;;;0.25;0.25;;;;;;;;;;4180821;28;20052;-42
2021/12/04 02:13:53;;;;;;;0.65;0.35;;;;;;;;;;4180192;28;20057;-40
2021/12/04 02:15:54;;;;;;;0.75;0.47;;;;;;;;;;4180815;28;20056;-42
2021/12/04 02:17:56;;;;;;;0.40;0.30;;;;;;;;;;4180407;28;20409;-41
2021/12/04 02:19:58;;;;;;;0.10;0.10;;;;;;;;;;4180784;28;20057;-41
2021/12/04 02:21:59;;;;;;;0.57;0.40;;;;;;;;;;4180691;28;20060;-42
2021/12/04 02:24:01;;;;;;;0.30;0.30;;;;;;;;;;4179937;28;20118;-42
2021/12/04 02:26:02;;;;;;;0.60;0.50;;;;;;;;;;4163006;28;20080;-42
2021/12/04 02:28:06;;;;;;;0.40;0.35;;;;;;;;;;4180452;28;20057;-41
2021/12/04 02:30:10;;;;;;;0.30;0.30;;;;;;;;;;4180716;28;20107;-40
2021/12/04 02:32:11;;;;;;;1.55;0.30;;;;;;;;;;4180497;28;20061;-43
2021/12/04 02:34:22;;;;;;;0.75;0.30;;;;;;;;;;4180689;28;20107;-41
2021/12/04 02:36:23;;;;;;;0.70;0.50;;;;;;;;;;4180555;28;20056;-40
2021/12/04 02:38:26;;;;;;;0.40;0.40;;;;;;;;;;4179964;28;20056;-43
2021/12/04 02:40:27;;;;;;;0.50;0.40;;;;;;;;;;4180884;28;20118;-40
2021/12/04 02:42:30;;;;;;;0.30;0.30;;;;;;;;;;4180641;28;20118;-42
2021/12/04 02:44:35;;;;;;;0.30;0.30;;;;;;;;;;4180322;28;20123;-42
2021/12/04 02:46:36;;;;;;;0.50;0.30;;;;;;;;;;4180322;28;20049;-42
2021/12/04 02:48:37;;;;;;;0.30;0.30;;;;;;;;;;4180382;28;20052;-41
2021/12/04 02:50:39;;;;;;;0.43;0.22;;;;;;;;;;4180458;28;20061;-41
2021/12/04 02:52:42;;;;;;;0.20;0.20;;;;;;;;;;4179904;28;20057;-42
2021/12/04 02:54:44;;;;;;;0.45;0.30;;;;;;;;;;4180360;28;20111;-42
2021/12/04 02:56:45;;;;;;;0.40;0.40;;;;;;;;;;4180372;28;20431;-40
2021/12/04 02:58:50;;;;;;;0.40;0.20;;;;;;;;;;4180234;28;20052;-42
2021/12/04 03:00:52;;;;;;;0.47;0.40;;;;;;;;;;4180306;28;20103;-43
2021/12/04 03:02:55;;;;;;;0.68;0.22;;;;;;;;;;4180220;28;20057;-41
2021/12/04 03:04:59;;;;;;;0.43;0.30;;;;;;;;;;4180376;28;20556;-41
2021/12/04 03:07:00;;;;;;;0.85;0.40;;;;;;;;;;4180210;28;20130;-42
2021/12/04 03:09:04;;;;;;;0.25;0.20;;;;;;;;;;4179860;28;20057;-42
2021/12/04 03:11:05;;;;;;;0.45;0.40;;;;;;;;;;4180380;28;20426;-43
2021/12/04 03:13:09;;;;;;;0.50;0.40;;;;;;;;;;4178963;28;20107;-40
2021/12/04 03:15:11;;;;;;;0.65;0.32;;;;;;;;;;4146726;28;20121;-43
2021/12/04 03:17:15;;;;;;;0.60;0.22;;;;;;;;;;4180158;28;20107;-43
2021/12/04 03:19:18;;;;;;;0.30;0.30;;;;;;;;;;4180271;28;20110;-43
2021/12/04 03:21:19;;;;;;;0.40;0.40;;;;;;;;;;4180093;28;20123;-44
2021/12/04 03:23:32;;;;;;;0.65;0.35;;;;;;;;;;4179680;28;20111;-43
2021/12/04 03:25:33;;;;;;;0.65;0.40;;;;;;;;;;4182337;28;20056;-43
2021/12/04 03:27:34;;;;;;;0.77;0.50;;;;;;;;;;4183565;28;20060;-43
2021/12/04 03:29:39;;;;;;;0.60;0.50;;;;;;;;;;4183148;28;20103;-43
2021/12/04 03:41:16;;;;;;;0.40;0.30;;;;;;;;;;4166877;28;20490;-33
2021/12/04 03:43:18;;;;;;;0.47;0.30;;;;;;;;;;4166771;28;20111;-33
2021/12/04 03:45:19;;;;;;;0.52;0.38;;;;;;;;;;4149218;28;20108;-33
2021/12/04 03:47:21;;;;;;;0.40;0.40;;;;;;;;;;4166800;28;20061;-34
2021/12/04 03:49:22;;;;;;;0.40;0.40;;;;;;;;;;4166646;28;20057;-33
2021/12/04 03:51:23;;;;;;;0.40;0.40;;;;;;;;;;4166640;28;20417;-34
2021/12/04 03:53:25;;;;;;;0.55;0.43;;;;;;;;;;4166034;28;20413;-33
2021/12/04 03:55:26;;;;;;;0.50;0.35;;;;;;;;;;4166545;28;20060;-34
2021/12/04 03:57:27;;;;;;;0.30;0.30;;;;;;;;;;4166651;28;20482;-33
2021/12/04 03:59:28;;;;;;;0.30;0.30;;;;;;;;;;4166375;28;20073;-33
2021/12/04 04:01:30;;;;;;;0.30;0.30;;;;;;;;;;4166667;28;20092;-33
2021/12/04 04:03:31;;;;;;;0.50;0.40;;;;;;;;;;4166408;28;20080;-33
2021/12/04 04:05:32;;;;;;;0.80;0.40;;;;;;;;;;4180077;28;20118;-34
2021/12/04 04:07:33;;;;;;;0.30;0.30;;;;;;;;;;4182595;28;20057;-33
2021/12/04 04:09:35;;;;;;;1.13;0.47;;;;;;;;;;4182372;28;20061;-33
2021/12/04 04:11:36;;;;;;;0.38;0.32;;;;;;;;;;4182800;28;20056;-33
2021/12/04 04:13:41;;;;;;;0.32;0.22;;;;;;;;;;4182357;28;20053;-32
2021/12/04 04:15:43;;;;;;;0.30;0.30;;;;;;;;;;4182658;28;20064;-33
2021/12/04 04:17:44;;;;;;;0.40;0.30;;;;;;;;;;4182502;28;20105;-33
2021/12/04 04:19:45;;;;;;;0.40;0.40;;;;;;;;;;4182654;28;20049;-33
2021/12/04 04:21:46;;;;;;;0.30;0.30;;;;;;;;;;4182693;28;20436;-34
2021/12/04 04:23:47;;;;;;;0.45;0.30;;;;;;;;;;4182017;28;20063;-34
2021/12/04 04:25:48;;;;;;;0.52;0.30;;;;;;;;;;4182328;28;20057;-33
2021/12/04 04:27:50;;;;;;;0.30;0.30;;;;;;;;;;4182431;28;20067;-33
2021/12/04 04:29:51;;;;;;;0.32;0.32;;;;;;;;;;4182085;28;20505;-32
2021/12/04 04:31:54;;;;;;;0.63;0.40;;;;;;;;;;4182435;28;20053;-33
2021/12/04 04:34:01;;;;;;;0.65;0.43;;;;;;;;;;4182253;28;20381;-33
2021/12/04 04:38:56;;;;;;;0.20;0.20;;;;;;;;;;4131019;28;20069;-33
2021/12/04 04:57:31;;;;;;;0.30;0.30;;;;;;;;;;4182212;28;20122;-33
2021/12/04 04:57:36;;;;;;;0.40;0.40;;;;;;;;;;4181933;28;20542;-34
2021/12/04 05:11:33;;;;;;;0.60;0.40;;;;;;;;;;4166845;28;19968;-33
2021/12/04 05:13:35;;;;;;;0.43;0.32;;;;;;;;;;4180491;28;20068;-33
2021/12/04 05:18:05;;;;;;;0.38;0.30;;;;;;;;;;4181559;28;20382;-33
2021/12/04 05:20:10;;;;;;;0.50;0.50;;;;;;;;;;4181885;28;20086;-33
2021/12/04 05:22:14;;;;;;;0.30;0.25;;;;;;;;;;4164265;28;20065;-33
2021/12/04 05:24:15;;;;;;;0.43;0.30;;;;;;;;;;4181109;28;20119;-34
2021/12/04 05:26:24;;;;;;;0.55;0.40;;;;;;;;;;4181688;28;20075;-33
2021/12/04 05:28:26;;;;;;;0.45;0.25;;;;;;;;;;4181860;28;20087;-33
2021/12/04 05:30:27;;;;;;;0.68;0.40;;;;;;;;;;4181576;28;20057;-33
2021/12/04 05:32:28;;;;;;;0.30;0.30;;;;;;;;;;4181900;28;20110;-33
2021/12/04 05:34:30;;;;;;;0.50;0.35;;;;;;;;;;4181465;28;20053;-33
2021/12/04 05:36:31;;;;;;;0.32;0.32;;;;;;;;;;4181652;28;20056;-33
2021/12/04 05:38:33;;;;;;;1.02;0.40;;;;;;;;;;4180715;28;20065;-33
2021/12/04 05:40:34;;;;;;;0.40;0.28;;;;;;;;;;4147136;28;20057;-34
2021/12/04 05:42:35;;;;;;;0.20;0.20;;;;;;;;;;4181080;28;20448;-33
2021/12/04 05:44:38;;;;;;;0.20;0.20;;;;;;;;;;4181603;28;20061;-33
2021/12/04 05:46:46;;;;;;;0.40;0.40;;;;;;;;;;4181246;28;20378;-34
2021/12/04 05:48:58;;;;;;;0.50;0.40;;;;;;;;;;4163570;28;20058;-33
2021/12/04 05:53:43;;;;;;;0.30;0.30;;;;;;;;;;4145950;28;20058;-34
2021/12/04 05:55:55;;;;;;;0.40;0.32;;;;;;;;;;4181342;28;20053;-33
2021/12/04 05:57:56;;;;;;;0.30;0.30;;;;;;;;;;4180927;28;20053;-34
2021/12/04 05:59:57;;;;;;;0.30;0.30;;;;;;;;;;4180983;28;20052;-33
2021/12/04 06:01:59;;;;;;;0.55;0.52;;;;;;;;;;4180925;28;20049;-33
2021/12/04 06:04:00;;;;;;;0.30;0.30;;;;;;;;;;4180945;28;20087;-33
2021/12/04 06:06:02;;;;;;;0.40;0.40;;;;;;;;;;4146995;28;20614;-33
2021/12/04 06:08:04;;;;;;;0.20;0.20;;;;;;;;;;4180292;28;20053;-33
2021/12/04 06:10:06;;;;;;;0.70;0.40;;;;;;;;;;4180930;28;20408;-33
2021/12/04 06:12:08;;;;;;;0.73;0.40;;;;;;;;;;4180915;28;20349;-33
2021/12/04 06:14:09;;;;;;;0.65;0.40;;;;;;;;;;4180782;28;20111;-34
2021/12/04 06:16:10;;;;;;;0.30;0.30;;;;;;;;;;4180923;28;20111;-32
2021/12/04 06:18:13;;;;;;;0.30;0.30;;;;;;;;;;4163073;28;20092;-34
2021/12/04 06:22:37;;;;;;;0.20;0.20;;;;;;;;;;4180601;28;20064;-33
2021/12/04 06:24:41;;;;;;;0.40;0.40;;;;;;;;;;4181161;28;20056;-33
2021/12/04 06:26:42;;;;;;;0.28;0.28;;;;;;;;;;4180547;28;20122;-33
2021/12/04 06:28:43;;;;;;;0.40;0.30;;;;;;;;;;4180810;28;20064;-33
2021/12/04 06:30:45;;;;;;;0.28;0.28;;;;;;;;;;4180721;28;20400;-33
2021/12/04 06:32:48;;;;;;;0.50;0.40;;;;;;;;;;4180825;28;20053;-33
2021/12/04 06:34:50;;;;;;;0.20;0.20;;;;;;;;;;4181048;28;20063;-33
2021/12/04 06:36:51;;;;;;;0.30;0.30;;;;;;;;;;4180625;28;20382;-34
2021/12/04 06:38:53;;;;;;;0.57;0.40;;;;;;;;;;4180141;28;20115;-33
2021/12/04 06:40:55;;;;;;;0.43;0.40;;;;;;;;;;4180484;28;20451;-33
2021/12/04 06:42:58;;;;;;;0.40;0.38;;;;;;;;;;4180609;28;20056;-33
2021/12/04 06:44:59;;;;;;;0.20;0.20;;;;;;;;;;4180602;28;20127;-33
2021/12/04 06:47:00;;;;;;;0.32;0.32;;;;;;;;;;4180740;28;20064;-41
2021/12/04 06:51:14;;;;;;;0.60;0.43;;;;;;;;;;4180370;28;20064;-43
2021/12/04 06:55:26;;;;;;;0.30;0.30;;;;;;;;;;4162750;28;20065;-40
2021/12/04 06:57:29;;;;;;;0.55;0.28;;;;;;;;;;4180426;28;20056;-38
2021/12/04 06:59:33;;;;;;;0.50;0.40;;;;;;;;;;4180927;28;20057;-39
2021/12/04 07:01:35;;;;;;;0.30;0.22;;;;;;;;;;4183709;28;20060;-35
2021/12/04 07:03:38;;;;;;;0.28;0.20;;;;;;;;;;4183499;28;20059;-39
2021/12/04 07:05:39;;;;;;;0.70;0.40;;;;;;;;;;4183710;28;20061;-39
2021/12/04 07:07:40;;;;;;;0.30;0.30;;;;;;;;;;4182872;28;20055;-38
2021/12/04 07:09:41;;;;;;;0.30;0.30;;;;;;;;;;4183591;28;20492;-41
2021/12/04 07:11:42;;;;;;;0.30;0.20;;;;;;;;;;4183575;28;20083;-37
2021/12/04 07:13:44;;;;;;;0.45;0.30;;;;;;;;;;4183616;28;20058;-41
2021/12/04 07:15:46;;;;;;;0.30;0.30;;;;;;;;;;4183469;28;20053;-39
2021/12/04 07:17:47;;;;;;;0.30;0.30;;;;;;;;;;4183453;28;20107;-41
2021/12/04 07:19:48;;;;;;;0.30;0.30;;;;;;;;;;4183455;28;20049;-40
2021/12/04 07:21:50;;;;;;;0.20;0.20;;;;;;;;;;4183568;28;20057;-39
2021/12/04 07:23:51;;;;;;;0.40;0.40;;;;;;;;;;4182667;28;20064;-42
2021/12/04 07:25:52;;;;;;;0.40;0.30;;;;;;;;;;4183163;28;20076;-39
2021/12/04 07:27:53;;;;;;;0.52;0.40;;;;;;;;;;4183309;28;20103;-39
2021/12/04 07:29:55;;;;;;;0.32;0.20;;;;;;;;;;4183624;28;20056;-41
2021/12/04 07:31:56;;;;;;;0.47;0.30;;;;;;;;;;4183383;28;20111;-41
2021/12/04 07:33:57;;;;;;;0.30;0.30;;;;;;;;;;4183434;28;20061;-39
2021/12/04 07:35:59;;;;;;;0.50;0.35;;;;;;;;;;4183115;28;20057;-39
2021/12/04 07:38:00;;;;;;;0.32;0.30;;;;;;;;;;4182450;28;20064;-41
2021/12/04 07:40:02;;;;;;;0.22;0.20;;;;;;;;;;4182869;28;20570;-40
2021/12/04 07:42:04;;;;;;;0.30;0.30;;;;;;;;;;4182980;28;20444;-40
2021/12/04 07:44:08;;;;;;;0.40;0.35;;;;;;;;;;4183030;28;20430;-40
2021/12/04 07:46:09;;;;;;;0.30;0.30;;;;;;;;;;4183283;28;20055;-41
2021/12/04 07:48:10;;;;;;;0.30;0.30;;;;;;;;;;4183084;28;20087;-39
2021/12/04 07:50:12;;;;;;;0.40;0.40;;;;;;;;;;4182956;28;20072;-41
2021/12/04 07:52:13;;;;;;;0.30;0.30;;;;;;;;;;4182882;28;20049;-37
2021/12/04 07:54:14;;;;;;;0.30;0.30;;;;;;;;;;4182441;28;20544;-40
2021/12/04 07:56:16;;;;;;;2.05;0.25;;;;;;;;;;4183035;28;20095;-39
2021/12/04 07:58:17;;;;;;;0.47;0.20;;;;;;;;;;4182912;28;20061;-39
2021/12/04 08:00:19;;;;;;;0.35;0.28;;;;;;;;;;4182293;28;20060;-39
2021/12/04 08:02:20;;;;;;;0.40;0.30;;;;;;;;;;4165089;28;20053;-42
2021/12/04 08:04:22;;;;;;;0.32;0.30;;;;;;;;;;4165121;28;20061;-40
2021/12/04 08:06:23;;;;;;;0.30;0.30;;;;;;;;;;4182780;28;20053;-41
2021/12/04 08:08:24;;;;;;;0.55;0.45;;;;;;;;;;4182403;28;20060;-40
2021/12/04 08:10:26;;;;;;;0.47;0.30;;;;;;;;;;4182535;28;20386;-40
2021/12/04 08:12:27;;;;;;;0.55;0.50;;;;;;;;;;4181956;28;20057;-40
2021/12/04 08:14:28;;;;;;;0.30;0.30;;;;;;;;;;4182464;28;20087;-41
2021/12/04 08:16:32;;;;;;;0.35;0.35;;;;;;;;;;4182642;28;20386;-41
2021/12/04 08:18:33;;;;;;;0.20;0.20;;;;;;;;;;4182335;28;20056;-40
2021/12/04 08:20:34;;;;;;;0.30;0.30;;;;;;;;;;4182673;28;20056;-40
2021/12/04 08:22:35;;;;;;;0.55;0.40;;;;;;;;;;4164513;28;20414;-41
2021/12/04 08:24:37;;;;;;;0.30;0.30;;;;;;;;;;4182288;28;20385;-41
2021/12/04 08:26:39;;;;;;;0.50;0.40;;;;;;;;;;4182307;28;20456;-39
2021/12/04 08:28:41;;;;;;;0.90;0.40;;;;;;;;;;4182682;28;20057;-40
2021/12/04 08:30:42;;;;;;;0.20;0.20;;;;;;;;;;4182844;28;20060;-41
2021/12/04 08:32:43;;;;;;;0.28;0.28;;;;;;;;;;4177846;28;20057;-39
2021/12/04 08:34:45;;;;;;;0.30;0.28;;;;;;;;;;4198987;28;20056;-39
2021/12/04 08:36:46;;;;;;;0.40;0.30;;;;;;;;;;4198821;28;20053;-40
2021/12/04 08:38:48;;;;;;;0.20;0.20;;;;;;;;;;4198113;28;20074;-40
2021/12/04 08:40:49;;;;;;;0.85;0.30;;;;;;;;;;4181016;28;20057;-40
2021/12/04 08:42:50;;;;;;;0.52;0.40;;;;;;;;;;4198840;28;20048;-39
2021/12/04 08:44:52;;;;;;;0.40;0.40;;;;;;;;;;4197462;28;20443;-40
2021/12/04 08:46:53;;;;;;;0.45;0.35;;;;;;;;;;4198515;28;20064;-40
2021/12/04 08:48:55;;;;;;;0.40;0.30;;;;;;;;;;4198449;28;20447;-39
2021/12/04 08:50:58;;;;;;;0.30;0.30;;;;;;;;;;4180617;28;20052;-41
2021/12/04 08:53:01;;;;;;;0.30;0.20;;;;;;;;;;4198161;28;20064;-39
2021/12/04 08:55:03;;;;;;;0.40;0.20;;;;;;;;;;4198453;28;20492;-41
2021/12/04 08:57:05;;;;;;;0.73;0.40;;;;;;;;;;4180728;28;20052;-39
2021/12/04 08:59:07;;;;;;;0.65;0.35;;;;;;;;;;4198143;28;20052;-38
2021/12/04 09:01:12;;;;;;;0.30;0.30;;;;;;;;;;4180680;28;20072;-40
2021/12/04 09:03:14;;;;;;;0.65;0.43;;;;;;;;;;4198470;28;20056;-40
2021/12/04 09:05:16;;;;;;;0.38;0.20;;;;;;;;;;4198353;28;20060;-38
2021/12/04 09:07:19;;;;;;;0.30;0.30;;;;;;;;;;4198348;28;20068;-40
2021/12/04 09:09:20;;;;;;;0.35;0.20;;;;;;;;;;4197867;28;20476;-40
2021/12/04 09:11:26;;;;;;;0.20;0.20;;;;;;;;;;4198178;28;20106;-39
2021/12/04 09:13:28;;;;;;;0.50;0.40;;;;;;;;;;4198255;28;20096;-41
2021/12/04 09:15:31;;;;;;;0.22;0.22;;;;;;;;;;4198190;28;20476;-40
2021/12/04 09:17:33;;;;;;;0.30;0.30;;;;;;;;;;4198343;28;20056;-38
2021/12/04 09:19:34;;;;;;;0.45;0.30;;;;;;;;;;4198047;28;20114;-39
2021/12/04 09:21:37;;;;;;;0.20;0.20;;;;;;;;;;4198106;28;20056;-40
2021/12/04 09:23:43;;;;;;;0.30;0.30;;;;;;;;;;4197196;28;20064;-39
2021/12/04 09:25:48;;;;;;;0.40;0.40;;;;;;;;;;4198071;28;20086;-41
2021/12/04 09:28:02;;;;;;;0.40;0.40;;;;;;;;;;4198361;28;20053;-36
2021/12/04 10:34:35;;;;;;;0.50;0.30;;;;;;;;;;4196689;28;20053;-41
2021/12/04 10:36:39;;;;;;;1.10;0.47;;;;;;;;;;4197203;28;20385;-40
2021/12/04 10:38:43;;;;;;;0.50;0.30;;;;;;;;;;4197139;28;20113;-40
2021/12/04 10:40:45;;;;;;;0.35;0.30;;;;;;;;;;4179697;28;20418;-40
2021/12/04 10:42:57;;;;;;;0.35;0.35;;;;;;;;;;4196902;28;20052;-39
2021/12/04 10:44:59;;;;;;;0.50;0.38;;;;;;;;;;4197246;28;20060;-41
2021/12/04 10:47:06;;;;;;;0.40;0.30;;;;;;;;;;4196925;28;20072;-40
2021/12/04 10:49:16;;;;;;;0.30;0.30;;;;;;;;;;4197387;28;20063;-41
2021/12/04 10:53:35;;;;;;;0.60;0.20;;;;;;;;;;4196525;28;20048;-36
2021/12/04 10:58:17;;;;;;;0.40;0.40;;;;;;;;;;4196881;28;20083;-41
2021/12/04 11:00:32;;;;;;;1.30;0.30;;;;;;;;;;4196811;28;20507;-43
2021/12/04 11:02:36;;;;;;;0.98;0.50;;;;;;;;;;4196890;28;20113;-40
2021/12/04 11:04:54;;;;;;;0.40;0.30;;;;;;;;;;4197213;28;20103;-42
2021/12/04 11:19:21;;;;;;;1.42;0.50;;;;;;;;;;4196706;28;20458;-41
2021/12/04 11:21:45;;;;;;;0.30;0.30;;;;;;;;;;4197108;28;20060;-41
2021/12/04 11:28:26;;;;;;;0.40;0.30;;;;;;;;;;4180105;28;20115;-42
2021/12/04 11:44:26;;;;;;;;;;;;;;;;;;4180462;28;20106;-40
2021/12/04 11:46:53;;;;;;;0.40;0.30;;;;;;;;;;4180558;28;19921;-40
2021/12/04 11:48:59;;;;;;;0.82;0.40;;;;;;;;;;4183037;28;20057;-40
2021/12/04 11:51:03;;;;;;;0.47;0.25;;;;;;;;;;4183145;28;20053;-41
2021/12/04 11:53:10;;;;;;;0.60;0.30;;;;;;;;;;4182367;28;20061;-40
2021/12/04 11:55:12;;;;;;;0.40;0.20;;;;;;;;;;4182940;28;20053;-39
2021/12/04 11:57:27;;;;;;;0.20;0.20;;;;;;;;;;4182714;28;20465;-38
2021/12/04 11:59:29;;;;;;;1.10;0.40;;;;;;;;;;4182979;28;20103;-41
2021/12/04 12:01:34;;;;;;;0.35;0.20;;;;;;;;;;4182954;28;20060;-42
2021/12/04 12:03:36;;;;;;;0.77;0.45;;;;;;;;;;4182670;28;20061;-38
2021/12/04 12:05:55;;;;;;;0.45;0.32;;;;;;;;;;4182980;28;20057;-40
2021/12/04 12:07:58;;;;;;;0.30;0.30;;;;;;;;;;4182280;28;20481;-37
2021/12/04 12:10:05;;;;;;;0.38;0.28;;;;;;;;;;4182747;28;20489;-42
2021/12/04 12:12:09;;;;;;;0.30;0.22;;;;;;;;;;4182762;28;20061;-42
2021/12/04 12:14:12;;;;;;;0.60;0.40;;;;;;;;;;4182525;28;20500;-41
2021/12/04 12:16:23;;;;;;;0.52;0.40;;;;;;;;;;4165112;28;20594;-39
2021/12/04 12:18:25;;;;;;;0.60;0.43;;;;;;;;;;4182497;28;20053;-41
2021/12/04 12:20:37;;;;;;;0.32;0.32;;;;;;;;;;4177188;28;20049;-42
2021/12/04 12:22:57;;;;;;;0.55;0.35;;;;;;;;;;4165795;28;20439;-40
2021/12/04 12:25:19;;;;;;;0.35;0.35;;;;;;;;;;4166046;28;20053;-41
2021/12/04 12:32:35;;;;;;;0.52;0.30;;;;;;;;;;4165919;28;20061;-44
2021/12/04 12:36:48;;;;;;;0.30;0.30;;;;;;;;;;4165994;28;20104;-39
2021/12/04 12:38:58;;;;;;;0.50;0.40;;;;;;;;;;4165240;28;20510;-41
2021/12/04 12:41:08;;;;;;;0.30;0.30;;;;;;;;;;4165786;28;20394;-40
2021/12/04 12:43:12;;;;;;;;;;;;;;;;;;4166169;28;20456;-41
2021/12/04 12:45:22;;;;;;;0.30;0.28;;;;;;;;;;4165836;28;19971;-39
2021/12/04 12:47:24;;;;;;;0.50;0.40;;;;;;;;;;4149246;28;20096;-41
2021/12/04 12:49:45;;;;;;;1.15;0.40;;;;;;;;;;4148930;28;20391;-42
2021/12/04 12:52:12;;;;;;;0.70;0.30;;;;;;;;;;4148031;28;20057;-39
2021/12/04 12:54:26;;;;;;;0.30;0.30;;;;;;;;;;4133067;28;20104;-42
2021/12/04 12:56:30;;;;;;;0.55;0.40;;;;;;;;;;4149192;28;20061;-41
2021/12/04 12:58:45;;;;;;;0.40;0.30;;;;;;;;;;4148600;28;20054;-39
2021/12/04 13:12:40;;;;;;;0.40;0.30;;;;;;;;;;4148867;28;20057;-40
2021/12/04 13:14:41;;;;;;;0.47;0.25;;;;;;;;;;4148925;28;20061;-39
2021/12/04 13:16:46;;;;;;;1.08;0.40;;;;;;;;;;4149229;28;20054;-38
2021/12/04 13:18:55;;;;;;;0.65;0.40;;;;;;;;;;4148622;28;20058;-40
2021/12/04 13:21:05;;;;;;;0.85;0.30;;;;;;;;;;4148859;28;20108;-41
2021/12/04 13:23:14;;;;;;;;;;;;;;;;;;4150614;28;20057;-40
2021/12/04 13:25:15;;;;;;;0.65;0.28;;;;;;;;;;4164970;28;19921;-40
2021/12/04 13:29:22;;;;;;;1.00;0.30;;;;;;;;;;4164832;28;20053;-40
2021/12/04 13:31:24;;;;;;;0.95;0.25;;;;;;;;;;4165031;28;20058;-40
2021/12/04 13:33:25;;;;;;;1.75;0.20;;;;;;;;;;4164927;28;20061;-41
2021/12/04 13:35:26;;;;;;;0.40;0.20;;;;;;;;;;4164940;28;20387;-40
2021/12/04 13:37:29;;;;;;;0.43;0.30;;;;;;;;;;4165088;28;20049;-41
2021/12/04 13:39:31;;;;;;;0.38;0.30;;;;;;;;;;4164346;28;20087;-43
2021/12/04 13:41:34;;;;;;;0.50;0.40;;;;;;;;;;4164753;28;20065;-39
2021/12/04 13:43:35;;;;;;;0.75;0.30;;;;;;;;;;4164686;28;20061;-41
2021/12/04 13:45:36;;;;;;;0.60;0.35;;;;;;;;;;4164869;28;20489;-39
2021/12/04 13:47:38;;;;;;;0.55;0.30;;;;;;;;;;4164560;28;20057;-41
2021/12/04 13:49:57;;;;;;;0.70;0.30;;;;;;;;;;4164644;28;20061;-40
2021/12/04 13:52:06;;;;;;;0.98;0.40;;;;;;;;;;4164989;28;20054;-38
2021/12/04 13:54:08;;;;;;;0.30;0.20;;;;;;;;;;4164174;28;20103;-41
2021/12/04 13:56:15;;;;;;;0.47;0.40;;;;;;;;;;4164546;28;20103;-42
2021/12/04 13:58:17;;;;;;;0.73;0.40;;;;;;;;;;4164478;28;20059;-42
2021/12/04 14:00:19;;;;;;;0.47;0.47;;;;;;;;;;4190026;28;20048;-43
2021/12/04 14:02:25;;;;;;;0.47;0.40;;;;;;;;;;4198036;28;20106;-39
2021/12/04 14:04:26;;;;;;;0.25;0.22;;;;;;;;;;4197552;28;20052;-43
2021/12/04 14:06:28;;;;;;;0.68;0.35;;;;;;;;;;4197362;28;20056;-40
2021/12/04 14:08:29;;;;;;;0.88;0.30;;;;;;;;;;4196820;28;20056;-38
2021/12/04 14:10:33;;;;;;;0.40;0.20;;;;;;;;;;4196998;28;20061;-42
2021/12/04 14:12:34;;;;;;;0.60;0.30;;;;;;;;;;4197427;28;20106;-41
2021/12/04 14:14:36;;;;;;;0.68;0.47;;;;;;;;;;4179554;28;20095;-40
2021/12/04 14:16:37;;;;;;;0.20;0.20;;;;;;;;;;4196480;28;20056;-39
2021/12/04 14:18:39;;;;;;;0.20;0.20;;;;;;;;;;4179575;28;20049;-40
2021/12/04 14:20:43;;;;;;;0.20;0.20;;;;;;;;;;4197726;28;20056;-39
2021/12/04 14:22:46;;;;;;;0.45;0.32;;;;;;;;;;4196886;28;20056;-39
2021/12/04 14:24:50;;;;;;;0.95;0.40;;;;;;;;;;4181151;28;20057;-43
2021/12/04 14:26:56;;;;;;;0.15;0.15;;;;;;;;;;4180895;28;20049;-41
2021/12/04 14:28:57;;;;;;;0.30;0.20;;;;;;;;;;4180594;28;20053;-39
2021/12/04 14:30:58;;;;;;;0.40;0.30;;;;;;;;;;4180956;28;20060;-43
2021/12/04 14:33:02;;;;;;;0.40;0.40;;;;;;;;;;4180745;28;20110;-37
2021/12/04 14:35:06;;;;;;;0.28;0.25;;;;;;;;;;4180562;28;20492;-43
2021/12/04 14:37:13;;;;;;;0.63;0.40;;;;;;;;;;4162844;28;20053;-41
2021/12/04 14:39:23;;;;;;;0.75;0.40;;;;;;;;;;4173795;28;20348;-40
2021/12/04 14:41:29;;;;;;;1.02;0.60;;;;;;;;;;4164050;28;20053;-40
2021/12/04 14:43:34;;;;;;;2.17;0.55;;;;;;;;;;4164041;28;20053;-40
2021/12/04 14:45:37;;;;;;;1.00;0.40;;;;;;;;;;4163108;28;20119;-41
2021/12/04 14:47:48;;;;;;;0.63;0.30;;;;;;;;;;4163946;28;20049;-42
2021/12/04 14:49:51;;;;;;;0.30;0.30;;;;;;;;;;4164120;28;20053;-38
2021/12/04 14:51:52;;;;;;;0.47;0.20;;;;;;;;;;4162555;28;20053;-42
2021/12/04 14:53:56;;;;;;;0.47;0.45;;;;;;;;;;4163727;28;20057;-41
2021/12/04 14:55:59;;;;;;;0.40;0.40;;;;;;;;;;4163968;28;20141;-41
2021/12/04 14:58:01;;;;;;;0.60;0.40;;;;;;;;;;4163837;28;20057;-38
2021/12/04 15:00:09;;;;;;;0.57;0.38;;;;;;;;;;4162584;28;20061;-43
2021/12/04 15:02:19;;;;;;;0.22;0.20;;;;;;;;;;4180530;28;20489;-40
2021/12/04 15:04:20;;;;;;;0.40;0.20;;;;;;;;;;4180344;28;20057;-39
2021/12/04 15:06:23;;;;;;;0.22;0.22;;;;;;;;;;4180238;28;20481;-42
2021/12/04 15:08:27;;;;;;;0.20;0.20;;;;;;;;;;4180081;28;20114;-38
2021/12/04 15:10:28;;;;;;;0.38;0.30;;;;;;;;;;4180381;28;20068;-42
2021/12/04 15:12:31;;;;;;;0.30;0.30;;;;;;;;;;4180338;28;20485;-39
2021/12/04 15:14:33;;;;;;;0.57;0.32;;;;;;;;;;4180287;28;20492;-41
2021/12/04 15:16:39;;;;;;;0.73;0.45;;;;;;;;;;4162764;28;20061;-42
2021/12/04 15:18:41;;;;;;;0.57;0.50;;;;;;;;;;4180306;28;20091;-43
2021/12/04 15:21:03;;;;;;;0.20;0.20;;;;;;;;;;4181246;28;20086;-43
2021/12/04 15:23:08;;;;;;;0.38;0.32;;;;;;;;;;4184649;28;20048;-42
2021/12/04 15:25:22;;;;;;;0.47;0.30;;;;;;;;;;4200129;28;20056;-41
2021/12/04 15:27:27;;;;;;;0.50;0.30;;;;;;;;;;4200183;28;20068;-41